Time;durP1;ratioP1;P1;durP2;ratioP2;P2;SDS_P1;SDS_P2;PMS_P1;PMS_P2;Temp;Humidity;BMP_temperature;BMP_pressure;BME280_temperature;BME280_humidity;BME280_pressure;Samples;Min_cycle;Max_cycle;Signal;HPM_P1;HPM_P2
2022/03/05 00:00:43;;;;;;;22.50;2.05;;;21.00;44.80;;;;;;5031814;28;20131;-73
2022/03/05 00:03:11;;;;;;;4.28;0.93;;;21.20;44.50;;;;;;5030688;28;20073;-73
2022/03/05 00:05:37;;;;;;;2.67;0.80;;;21.30;43.30;;;;;;5029471;28;20113;-73
2022/03/05 00:08:04;;;;;;;10.02;1.30;;;21.40;42.50;;;;;;5047522;28;20127;-73
2022/03/05 00:10:31;;;;;;;11.02;1.73;;;21.60;42.00;;;;;;5040073;28;20070;-73
2022/03/05 00:12:58;;;;;;;13.13;1.58;;;21.70;40.60;;;;;;5030805;28;20128;-72
2022/03/05 00:15:25;;;;;;;9.50;2.05;;;21.80;39.70;;;;;;5028338;28;20544;-69
2022/03/05 00:17:54;;;;;;;9.70;1.42;;;21.80;39.50;;;;;;5045603;28;20188;-73
2022/03/05 00:20:22;;;;;;;22.27;1.50;;;21.90;38.80;;;;;;5029935;28;20089;-72
2022/03/05 00:22:52;;;;;;;10.55;1.35;;;21.80;39.40;;;;;;5013298;28;20082;-71
2022/03/05 00:25:20;;;;;;;10.57;1.45;;;21.80;39.90;;;;;;5030670;28;20074;-71
2022/03/05 00:27:47;;;;;;;21.40;1.92;;;21.80;39.70;;;;;;5029930;28;20116;-71
2022/03/05 00:30:14;;;;;;;100.70;4.65;;;21.80;40.20;;;;;;5029877;28;20483;-71
2022/03/05 00:32:40;;;;;;;13.15;1.75;;;21.50;40.00;;;;;;5045821;28;20168;-74
2022/03/05 00:35:07;;;;;;;22.08;2.03;;;21.30;40.90;;;;;;5030204;28;20080;-71
2022/03/05 00:37:34;;;;;;;14.85;2.00;;;21.30;41.40;;;;;;5029493;28;20120;-70
2022/03/05 00:40:00;;;;;;;10.45;1.50;;;21.10;41.40;;;;;;5018635;28;20078;-71
2022/03/05 00:42:27;;;;;;;13.10;1.30;;;21.10;41.60;;;;;;5029171;28;20164;-69
2022/03/05 00:44:53;;;;;;;16.05;1.60;;;21.00;41.60;;;;;;5029417;28;20081;-72
2022/03/05 00:47:20;;;;;;;17.73;1.88;;;21.00;41.70;;;;;;5029231;28;20130;-73
2022/03/05 00:49:46;;;;;;;9.93;1.70;;;21.10;42.20;;;;;;5047745;28;20498;-70
2022/03/05 00:52:12;;;;;;;9.50;1.40;;;21.10;41.40;;;;;;5042572;28;20094;-71
2022/03/05 00:54:39;;;;;;;11.93;1.80;;;21.10;41.60;;;;;;5030216;28;20078;-72
2022/03/05 00:57:05;;;;;;;10.82;1.90;;;21.10;42.30;;;;;;5028988;28;20097;-73
2022/03/05 00:59:31;;;;;;;16.25;1.77;;;21.20;42.30;;;;;;5018085;23;20114;-73
2022/03/05 01:01:58;;;;;;;16.13;1.83;;;21.20;41.40;;;;;;5014171;28;20078;-72
2022/03/05 01:04:24;;;;;;;13.38;1.30;;;21.10;41.70;;;;;;5036518;28;20089;-73
2022/03/05 01:06:51;;;;;;;6.82;1.15;;;21.10;41.60;;;;;;4995378;28;20085;-71
2022/03/05 01:09:17;;;;;;;8.60;1.40;;;21.10;41.80;;;;;;5012513;28;20085;-71
2022/03/05 01:11:44;;;;;;;13.82;1.92;;;21.00;42.20;;;;;;5014650;28;20101;-71
2022/03/05 01:14:10;;;;;;;12.57;1.83;;;21.00;42.40;;;;;;4999479;28;20069;-71
2022/03/05 01:16:36;;;;;;;14.18;1.30;;;20.80;42.50;;;;;;5017538;28;20511;-72
2022/03/05 01:19:03;;;;;;;12.93;1.70;;;20.80;42.70;;;;;;4997139;28;20534;-72
2022/03/05 01:21:30;;;;;;;10.90;1.70;;;20.80;42.80;;;;;;5016339;28;20099;-71
2022/03/05 01:23:56;;;;;;;8.13;1.45;;;20.70;42.90;;;;;;5014628;28;20066;-71
2022/03/05 01:26:23;;;;;;;5.90;1.27;;;20.60;43.10;;;;;;5011391;28;20161;-70
2022/03/05 01:28:49;;;;;;;4.25;1.02;;;20.60;43.20;;;;;;5013366;28;20165;-71
2022/03/05 01:31:16;;;;;;;7.70;0.90;;;20.40;43.30;;;;;;5007854;28;20548;-70
2022/03/05 01:33:42;;;;;;;7.03;1.52;;;20.40;43.20;;;;;;5015432;28;20086;-71
2022/03/05 01:36:09;;;;;;;5.55;0.98;;;20.30;43.00;;;;;;5012640;28;20436;-70
2022/03/05 01:38:35;;;;;;;6.47;1.40;;;20.20;42.80;;;;;;5011086;28;20144;-73
2022/03/05 01:41:01;;;;;;;8.50;1.92;;;20.20;42.80;;;;;;5017159;28;20073;-71
2022/03/05 01:43:28;;;;;;;6.57;2.33;;;20.20;42.70;;;;;;5015524;28;20074;-71
2022/03/05 01:45:54;;;;;;;9.63;1.25;;;20.20;42.60;;;;;;4996313;28;20081;-69
2022/03/05 01:48:21;;;;;;;8.43;1.50;;;20.10;42.80;;;;;;5017029;28;20077;-70
2022/03/05 01:50:47;;;;;;;16.48;1.80;;;20.00;42.90;;;;;;5032202;28;20078;-70
2022/03/05 01:53:14;;;;;;;9.25;1.80;;;19.90;43.10;;;;;;5014313;28;20084;-68
2022/03/05 01:55:43;;;;;;;8.52;1.67;;;19.90;43.70;;;;;;5016323;28;20084;-71
2022/03/05 01:58:09;;;;;;;8.07;1.60;;;19.80;44.00;;;;;;5020530;28;20161;-69
2022/03/05 02:00:36;;;;;;;8.05;1.58;;;19.70;44.80;;;;;;5036147;28;20074;-69
2022/03/05 02:03:03;;;;;;;8.65;1.52;;;19.60;44.30;;;;;;5030407;28;20078;-72
2022/03/05 02:05:30;;;;;;;5.57;1.70;;;19.60;44.60;;;;;;5030705;28;20097;-69
2022/03/05 02:07:57;;;;;;;5.32;1.33;;;19.50;44.80;;;;;;5029665;28;20099;-70
2022/03/05 02:10:23;;;;;;;7.07;1.52;;;19.50;45.30;;;;;;5030921;28;20460;-71
2022/03/05 02:12:49;;;;;;;;;;;19.50;45.60;;;;;;5031075;28;20086;-72
2022/03/05 02:15:15;;;;;;;13.05;1.60;;;19.40;45.60;;;;;;5031589;28;20411;-69
2022/03/05 02:17:42;;;;;;;;;;;19.40;45.70;;;;;;5030299;28;20884;-69
2022/03/05 02:20:08;;;;;;;6.07;1.52;;;19.30;45.90;;;;;;5034664;28;20419;-68
2022/03/05 02:22:35;;;;;;;3.70;1.38;;;19.20;46.10;;;;;;5031533;28;20431;-68
2022/03/05 02:25:05;;;;;;;8.18;1.20;;;19.20;46.10;;;;;;5029569;28;20070;-71
2022/03/05 02:27:31;;;;;;;4.78;1.15;;;19.20;46.30;;;;;;5029642;28;20074;-70
2022/03/05 02:29:58;;;;;;;6.13;1.30;;;19.10;46.20;;;;;;5031830;28;20416;-69
2022/03/05 02:32:25;;;;;;;14.43;1.50;;;19.10;46.30;;;;;;4996809;28;20563;-71
2022/03/05 02:34:52;;;;;;;2.78;0.88;;;19.00;46.40;;;;;;5026398;28;20109;-69
2022/03/05 02:37:18;;;;;;;10.40;1.27;;;19.00;46.60;;;;;;5028044;28;20094;-69
2022/03/05 02:39:46;;;;;;;8.52;1.27;;;19.00;46.80;;;;;;5028560;28;20074;-68
2022/03/05 02:42:17;;;;;;;7.60;1.58;;;19.00;47.00;;;;;;5029431;28;20074;-68
2022/03/05 02:44:45;;;;;;;3.30;1.10;;;19.00;47.10;;;;;;5014733;28;20089;-67
2022/03/05 02:47:12;;;;;;;9.57;1.55;;;19.00;47.30;;;;;;5038217;28;20082;-69
2022/03/05 02:49:39;;;;;;;6.50;1.50;;;18.90;47.50;;;;;;5024405;28;20074;-69
2022/03/05 02:52:06;;;;;;;10.13;1.85;;;18.80;47.70;;;;;;5029590;28;20099;-69
2022/03/05 02:54:33;;;;;;;7.38;1.65;;;18.80;48.00;;;;;;5031820;28;20387;-68
2022/03/05 02:56:59;;;;;;;4.55;2.33;;;18.70;48.60;;;;;;5030137;28;20085;-67
2022/03/05 02:59:26;;;;;;;9.45;1.80;;;18.60;49.10;;;;;;5051214;28;20113;-68
2022/03/05 03:01:52;;;;;;;8.80;2.10;;;18.60;49.70;;;;;;5053146;28;20085;-68
2022/03/05 03:04:19;;;;;;;4.80;2.13;;;18.50;50.10;;;;;;5018618;28;20077;-69
2022/03/05 03:06:45;;;;;;;14.30;4.03;;;18.50;50.30;;;;;;5040561;28;20147;-68
2022/03/05 03:09:11;;;;;;;;;;;18.40;50.60;;;;;;5055131;28;20069;-69
2022/03/05 03:11:38;;;;;;;13.70;3.33;;;18.40;50.70;;;;;;5037749;28;19971;-68
2022/03/05 03:14:04;;;;;;;21.27;5.35;;;18.30;50.90;;;;;;5036479;28;20172;-68
2022/03/05 03:16:31;;;;;;;9.95;5.82;;;18.20;51.10;;;;;;5020754;28;20615;-68
2022/03/05 03:18:57;;;;;;;;;;;18.20;51.20;;;;;;5037759;28;20194;-69
2022/03/05 03:21:23;;;;;;;10.85;4.00;;;18.20;51.30;;;;;;5038371;28;19957;-70
2022/03/05 03:23:49;;;;;;;;;;;18.10;51.50;;;;;;5035556;28;20487;-69
2022/03/05 03:26:16;;;;;;;5.85;3.00;;;18.10;51.60;;;;;;5035041;28;20064;-68
2022/03/05 03:28:42;;;;;;;31.08;2.60;;;18.10;51.90;;;;;;5034992;28;20069;-68
2022/03/05 03:31:08;;;;;;;10.82;2.85;;;18.00;52.10;;;;;;5038008;28;20550;-68
2022/03/05 03:33:34;;;;;;;;;;;18.00;52.40;;;;;;5019103;28;20118;-69
2022/03/05 03:36:01;;;;;;;7.07;2.50;;;17.90;52.60;;;;;;5038150;28;19961;-68
2022/03/05 03:38:27;;;;;;;8.40;2.45;;;17.90;52.70;;;;;;5035605;28;20108;-69
2022/03/05 03:40:53;;;;;;;;;;;17.90;52.80;;;;;;5020022;28;20065;-68
2022/03/05 03:43:20;;;;;;;14.05;3.15;;;17.80;52.80;;;;;;5054239;28;20003;-68
2022/03/05 03:45:46;;;;;;;;;;;17.80;52.80;;;;;;5035076;28;20065;-67
2022/03/05 03:48:12;;;;;;;15.00;2.75;;;17.80;52.70;;;;;;5054358;28;20373;-69
2022/03/05 03:50:38;;;;;;;;;;;17.80;52.30;;;;;;5051980;28;20130;-69
2022/03/05 03:53:05;;;;;;;7.50;1.70;;;17.80;51.80;;;;;;5055918;28;19962;-69
2022/03/05 03:55:31;;;;;;;19.88;2.35;;;17.80;51.20;;;;;;5051618;28;20088;-70
2022/03/05 03:57:59;;;;;;;14.55;1.77;;;17.80;50.80;;;;;;5052197;28;20237;-70
2022/03/05 04:00:25;;;;;;;28.85;3.40;;;17.70;50.50;;;;;;5036884;28;20511;-71
2022/03/05 04:02:52;;;;;;;34.33;3.58;;;17.70;49.80;;;;;;5037015;28;20082;-70
2022/03/05 04:05:18;;;;;;;22.75;2.53;;;17.70;49.50;;;;;;5032933;28;20081;-70
2022/03/05 04:10:29;;;;;;;43.08;3.97;;;17.70;49.20;;;;;;5052279;28;20127;-71
2022/03/05 04:12:56;;;;;;;35.03;2.60;;;17.70;49.20;;;;;;5036858;28;21355;-71
2022/03/05 04:15:22;;;;;;;21.38;1.60;;;17.70;49.10;;;;;;5038782;28;20069;-70
2022/03/05 04:17:50;;;;;;;36.80;2.50;;;17.70;49.20;;;;;;5053687;28;20183;-73
2022/03/05 04:20:18;;;;;;;28.58;2.28;;;17.60;50.10;;;;;;5036847;28;20451;-73
2022/03/05 04:22:44;;;;;;;52.33;3.60;;;17.60;49.60;;;;;;5049917;28;20169;-71
2022/03/05 04:25:10;;;;;;;;;;;17.60;49.90;;;;;;5034442;28;20084;-71
2022/03/05 04:27:37;;;;;;;14.35;1.88;;;17.60;49.90;;;;;;5036417;28;19961;-72
2022/03/05 04:30:05;;;;;;;35.03;2.35;;;17.50;49.90;;;;;;5050952;28;20163;-71
2022/03/05 04:32:31;;;;;;;28.17;2.35;;;17.50;50.20;;;;;;5034641;28;20069;-71
2022/03/05 04:34:57;;;;;;;;;;;17.50;50.30;;;;;;5038491;28;20095;-71
2022/03/05 04:37:24;;;;;;;19.40;1.60;;;17.50;50.10;;;;;;5049462;28;19987;-73
2022/03/05 04:39:50;;;;;;;;;;;17.40;50.10;;;;;;5024668;28;20083;-69
2022/03/05 04:42:16;;;;;;;13.38;1.50;;;17.40;50.10;;;;;;5033364;28;20651;-71
2022/03/05 04:44:42;;;;;;;;;;;17.40;50.00;;;;;;5035119;28;20174;-70
2022/03/05 04:47:09;;;;;;;18.63;1.42;;;17.30;49.70;;;;;;5018500;28;20619;-71
2022/03/05 04:49:35;;;;;;;;;;;17.30;49.70;;;;;;5033788;28;20156;-72
2022/03/05 04:52:01;;;;;;;14.73;1.85;;;17.30;49.70;;;;;;5035981;28;20415;-71
2022/03/05 04:54:29;;;;;;;9.00;1.40;;;17.30;49.70;;;;;;5033776;28;20085;-70
2022/03/05 04:56:57;;;;;;;18.08;1.20;;;17.30;49.70;;;;;;5034878;28;20504;-70
2022/03/05 04:59:23;;;;;;;11.32;1.33;;;17.20;49.30;;;;;;5035668;28;20509;-72
2022/03/05 05:01:50;;;;;;;15.32;1.65;;;17.30;49.30;;;;;;5036690;28;20073;-72
2022/03/05 05:04:16;;;;;;;8.80;1.95;;;17.30;49.30;;;;;;5033084;28;20495;-70
2022/03/05 05:06:42;;;;;;;19.23;3.67;;;17.20;49.10;;;;;;5035990;28;20086;-72
2022/03/05 05:09:09;;;;;;;;;;;17.20;49.20;;;;;;5052049;28;20547;-72
2022/03/05 05:11:35;;;;;;;13.60;4.72;;;17.20;49.00;;;;;;5035229;28;19980;-70
2022/03/05 05:14:02;;;;;;;22.30;5.93;;;17.20;48.70;;;;;;5031774;28;20100;-71
2022/03/05 05:16:28;;;;;;;34.08;17.02;;;17.20;48.30;;;;;;5034100;28;20124;-68
2022/03/05 05:21:39;;;;;;;14.20;2.50;;;17.20;48.50;;;;;;5036846;28;20038;-69
2022/03/05 05:24:06;;;;;;;13.10;3.38;;;17.10;49.00;;;;;;5038814;28;20081;-68
2022/03/05 05:26:32;;;;;;;16.27;4.05;;;17.10;49.30;;;;;;5034212;28;20069;-69
2022/03/05 05:30:31;;;;;;;15.10;2.97;;;17.00;49.20;;;;;;5103966;27;20480;-70
2022/03/05 05:32:57;;;;;;;6.75;2.10;;;17.00;49.90;;;;;;5104114;28;20167;-68
2022/03/05 05:35:24;;;;;;;;;;;16.90;49.90;;;;;;5102891;28;20073;-68
2022/03/05 05:37:50;;;;;;;8.30;1.80;;;16.90;49.80;;;;;;5103386;28;19956;-68
2022/03/05 05:40:17;;;;;;;3.65;1.45;;;16.90;49.60;;;;;;5105439;28;20125;-67
2022/03/05 05:42:43;;;;;;;;;;;16.90;49.60;;;;;;5120658;27;20073;-68
2022/03/05 05:45:09;;;;;;;6.57;2.20;;;16.90;49.50;;;;;;5087442;28;20033;-70
2022/03/05 05:47:36;;;;;;;6.30;2.20;;;16.90;49.50;;;;;;5101081;28;20117;-67
2022/03/05 05:50:07;;;;;;;7.88;4.55;;;16.80;49.50;;;;;;5103589;28;20087;-67
2022/03/05 05:52:33;;;;;;;7.45;2.95;;;16.80;49.50;;;;;;5085410;28;20453;-66
2022/03/05 05:55:00;;;;;;;5.05;2.20;;;16.80;49.60;;;;;;5101666;28;20100;-71
2022/03/05 05:57:26;;;;;;;7.43;2.45;;;16.80;49.70;;;;;;5102757;28;20082;-69
2022/03/05 05:59:52;;;;;;;;;;;16.80;49.70;;;;;;5086664;28;20072;-67
2022/03/05 06:02:19;;;;;;;10.45;2.50;;;16.80;50.00;;;;;;5102743;28;20018;-67
2022/03/05 06:04:45;;;;;;;;;;;16.80;50.20;;;;;;5086582;28;20072;-67
2022/03/05 06:07:11;;;;;;;11.50;3.53;;;16.80;50.50;;;;;;5103319;28;19984;-69
2022/03/05 06:09:37;;;;;;;6.25;2.20;;;16.70;50.90;;;;;;5101326;28;20539;-67
2022/03/05 06:12:04;;;;;;;;;;;16.70;51.20;;;;;;5103576;28;20163;-69
2022/03/05 06:14:30;;;;;;;11.55;3.15;;;16.70;51.20;;;;;;5106446;28;20006;-69
2022/03/05 06:16:56;;;;;;;;;;;16.70;51.00;;;;;;5102384;28;20072;-69
2022/03/05 06:19:23;;;;;;;8.80;2.30;;;16.70;50.80;;;;;;5101333;28;19973;-71
2022/03/05 06:21:49;;;;;;;;;;;16.70;51.40;;;;;;5099803;28;20073;-68
2022/03/05 06:24:15;;;;;;;9.82;1.98;;;16.70;50.80;;;;;;5096176;28;19956;-70
2022/03/05 06:26:41;;;;;;;;;;;16.70;51.10;;;;;;5101874;28;20072;-69
2022/03/05 06:29:08;;;;;;;7.20;1.30;;;16.70;51.20;;;;;;5100991;28;20045;-67
2022/03/05 06:31:34;;;;;;;;;;;16.70;51.20;;;;;;5100056;28;20598;-69
2022/03/05 06:34:00;;;;;;;5.75;1.40;;;16.70;51.40;;;;;;5100517;28;19956;-67
2022/03/05 06:36:27;;;;;;;8.05;1.80;;;16.70;51.40;;;;;;5099351;28;20209;-68
2022/03/05 06:38:53;;;;;;;;;;;16.70;51.30;;;;;;5097699;28;21622;-68
2022/03/05 06:41:19;;;;;;;6.05;1.50;;;16.60;51.30;;;;;;5089166;28;20007;-69
2022/03/05 06:43:45;;;;;;;3.60;1.52;;;16.60;51.40;;;;;;5088256;28;20084;-70
2022/03/05 06:46:11;;;;;;;;;;;16.60;51.40;;;;;;5087498;28;20113;-69
2022/03/05 06:48:38;;;;;;;2.47;1.15;;;16.70;51.30;;;;;;5088232;28;20022;-68
2022/03/05 06:51:04;;;;;;;;;;;16.70;51.30;;;;;;5087527;28;20065;-68
2022/03/05 06:53:30;;;;;;;6.63;1.38;;;16.70;51.40;;;;;;5086155;28;19972;-68
2022/03/05 06:55:57;;;;;;;7.40;1.50;;;16.60;51.60;;;;;;5084988;28;20069;-69
2022/03/05 06:58:23;;;;;;;;;;;16.70;51.90;;;;;;5084673;28;20104;-70
2022/03/05 07:00:49;;;;;;;3.75;1.60;;;16.70;51.90;;;;;;5086464;28;20008;-68
2022/03/05 07:03:15;;;;;;;7.35;1.35;;;16.60;52.10;;;;;;5087339;28;20167;-68
2022/03/05 07:05:42;;;;;;;6.25;1.30;;;16.60;52.40;;;;;;5083912;28;20542;-70
2022/03/05 07:08:08;;;;;;;;;;;16.60;52.60;;;;;;5087501;28;20187;-69
2022/03/05 07:10:34;;;;;;;3.78;1.25;;;16.60;52.70;;;;;;5086327;28;19982;-68
2022/03/05 07:13:00;;;;;;;;;;;16.50;53.00;;;;;;5086691;28;20073;-68
2022/03/05 07:15:27;;;;;;;6.07;1.40;;;16.50;53.20;;;;;;5084789;28;20479;-69
2022/03/05 07:17:53;;;;;;;;;;;16.50;53.20;;;;;;5085345;28;20114;-68
2022/03/05 07:20:21;;;;;;;4.73;1.90;;;16.50;53.30;;;;;;5085689;28;21529;-70
2022/03/05 07:22:47;;;;;;;11.10;2.90;;;16.40;53.40;;;;;;5081324;28;20100;-68
2022/03/05 07:25:14;;;;;;;;;;;16.40;53.50;;;;;;5085715;28;20076;-69
2022/03/05 07:27:41;;;;;;;8.95;2.83;;;16.40;53.80;;;;;;5086776;28;20426;-68
2022/03/05 07:30:08;;;;;;;9.57;2.85;;;16.40;53.60;;;;;;5086271;28;20257;-68
2022/03/05 07:32:35;;;;;;;8.23;2.42;;;16.40;53.50;;;;;;5068686;28;20069;-69
2022/03/05 07:35:05;;;;;;;12.18;2.20;;;16.40;53.10;;;;;;5087440;28;20069;-70
2022/03/05 07:37:32;;;;;;;12.15;2.00;;;16.40;52.80;;;;;;5086895;28;20126;-70
2022/03/05 07:39:59;;;;;;;6.07;1.52;;;16.40;52.50;;;;;;5087466;28;20073;-71
2022/03/05 07:42:25;;;;;;;6.10;1.45;;;16.40;52.20;;;;;;5085588;28;20526;-69
2022/03/05 07:44:51;;;;;;;;;;;16.40;52.10;;;;;;5087625;28;20793;-69
2022/03/05 07:47:18;;;;;;;7.68;1.35;;;16.40;52.10;;;;;;5084826;28;20473;-68
2022/03/05 07:49:44;;;;;;;;;;;16.40;52.10;;;;;;5085683;28;20142;-69
2022/03/05 07:52:10;;;;;;;9.30;1.67;;;16.40;51.90;;;;;;5084934;28;20418;-71
2022/03/05 07:54:36;;;;;;;;;;;16.40;51.70;;;;;;5086083;28;20522;-70
2022/03/05 07:57:03;;;;;;;8.25;1.95;;;16.40;51.60;;;;;;5083968;28;19971;-71
2022/03/05 07:59:29;;;;;;;5.93;1.70;;;16.40;51.40;;;;;;5084592;28;20079;-70
2022/03/05 08:01:55;;;;;;;;;;;16.40;51.40;;;;;;5087346;28;20081;-70
2022/03/05 08:04:22;;;;;;;16.50;1.50;;;16.40;51.20;;;;;;5084647;28;20042;-71
2022/03/05 08:06:48;;;;;;;;;;;16.30;50.90;;;;;;5083384;28;20084;-72
2022/03/05 08:09:14;;;;;;;11.93;2.30;;;16.30;50.70;;;;;;5086014;28;20082;-67
2022/03/05 08:11:41;;;;;;;8.23;1.75;;;16.30;50.50;;;;;;5086422;28;20069;-68
2022/03/05 08:14:07;;;;;;;;;;;16.30;50.50;;;;;;5081237;28;20126;-69
2022/03/05 08:16:33;;;;;;;8.07;1.67;;;16.30;50.20;;;;;;5084642;28;19980;-70
2022/03/05 08:18:59;;;;;;;;;;;16.30;50.10;;;;;;5085206;28;20080;-70
2022/03/05 08:21:29;;;;;;;12.73;1.85;;;16.30;50.00;;;;;;5086522;28;19973;-69
2022/03/05 08:23:56;;;;;;;11.20;2.10;;;16.30;50.10;;;;;;5082638;28;20079;-70
2022/03/05 08:26:23;;;;;;;8.50;1.65;;;16.20;50.20;;;;;;5083749;28;20081;-70
2022/03/05 08:28:49;;;;;;;6.28;1.50;;;16.20;50.30;;;;;;5082103;28;20130;-70
2022/03/05 08:31:16;;;;;;;8.05;1.40;;;16.30;50.10;;;;;;5084586;28;20088;-69
2022/03/05 08:33:42;;;;;;;;;;;16.30;49.90;;;;;;5085451;28;20072;-68
2022/03/05 08:36:09;;;;;;;12.55;1.95;;;16.30;50.10;;;;;;5084672;28;19972;-69
2022/03/05 08:38:36;;;;;;;10.23;2.22;;;16.10;50.30;;;;;;5085371;28;20076;-70
2022/03/05 08:41:04;;;;;;;9.73;2.45;;;16.10;50.20;;;;;;5067240;28;20081;-69
2022/03/05 08:43:30;;;;;;;7.32;1.80;;;16.10;49.90;;;;;;5087364;28;21041;-70
2022/03/05 08:45:57;;;;;;;;;;;16.10;50.00;;;;;;5084576;28;20081;-69
2022/03/05 08:48:23;;;;;;;4.68;1.83;;;16.10;50.10;;;;;;5081144;28;20051;-70
2022/03/05 08:50:49;;;;;;;;;;;16.10;50.10;;;;;;5086290;28;20590;-71
2022/03/05 08:53:15;;;;;;;7.28;2.00;;;16.00;50.00;;;;;;5084180;28;19973;-69
2022/03/05 08:55:42;;;;;;;;;;;16.00;50.20;;;;;;5081031;28;20100;-69
2022/03/05 08:58:08;;;;;;;9.70;2.00;;;16.00;50.60;;;;;;5083514;28;21253;-70
2022/03/05 09:00:34;;;;;;;13.13;2.45;;;15.90;50.80;;;;;;5084484;28;20079;-69
2022/03/05 09:03:01;;;;;;;13.05;2.78;;;15.90;50.60;;;;;;5065453;28;20139;-67
2022/03/05 09:05:27;;;;;;;;;;;15.80;50.60;;;;;;5084568;28;20063;-71
2022/03/05 09:07:53;;;;;;;10.13;2.40;;;15.80;50.80;;;;;;5083798;28;20066;-68
2022/03/05 09:10:19;;;;;;;;;;;15.80;50.90;;;;;;5088984;28;20593;-71
2022/03/05 09:12:46;;;;;;;9.93;2.00;;;15.70;50.70;;;;;;5083868;28;19956;-71
2022/03/05 09:15:12;;;;;;;;;;;15.80;51.00;;;;;;5087290;28;20594;-69
2022/03/05 09:17:38;;;;;;;18.05;3.03;;;15.70;50.90;;;;;;5084466;28;20047;-70
2022/03/05 09:20:05;;;;;;;10.05;2.58;;;15.70;50.90;;;;;;5081047;28;20489;-69
2022/03/05 09:22:33;;;;;;;8.20;2.58;;;15.80;50.80;;;;;;5083745;28;20103;-71
2022/03/05 09:24:59;;;;;;;9.60;2.80;;;15.70;50.70;;;;;;5083309;28;20105;-72
2022/03/05 09:27:26;;;;;;;10.55;2.95;;;15.70;50.70;;;;;;5085136;28;20100;-68
2022/03/05 09:29:52;;;;;;;;;;;15.70;50.70;;;;;;5082849;28;20601;-68
2022/03/05 09:32:18;;;;;;;16.77;2.38;;;15.70;50.80;;;;;;5068764;28;20497;-69
2022/03/05 09:34:44;;;;;;;;;;;15.60;50.80;;;;;;5086464;28;20075;-69
2022/03/05 09:37:11;;;;;;;26.90;12.27;;;15.60;50.90;;;;;;5082520;28;19977;-70
2022/03/05 09:39:37;;;;;;;;;;;15.60;51.10;;;;;;5083514;28;20077;-69
2022/03/05 09:42:07;;;;;;;31.27;14.23;;;15.60;52.10;;;;;;5084495;28;19965;-69
2022/03/05 09:44:35;;;;;;;17.08;8.15;;;15.60;52.40;;;;;;5085731;28;20073;-70
2022/03/05 09:47:02;;;;;;;4.72;2.13;;;15.70;53.00;;;;;;5082004;28;20198;-69
2022/03/05 09:49:29;;;;;;;3.38;1.63;;;15.70;54.10;;;;;;5084314;28;20515;-69
2022/03/05 09:51:58;;;;;;;3.13;1.17;;;15.70;55.60;;;;;;5086086;28;20064;-69
2022/03/05 09:54:24;;;;;;;2.95;1.50;;;15.70;56.60;;;;;;5064692;28;20084;-69
2022/03/05 09:56:51;;;;;;;3.50;1.60;;;15.60;57.80;;;;;;5081177;28;20100;-71
2022/03/05 09:59:17;;;;;;;;;;;15.50;58.90;;;;;;5083220;28;20141;-69
2022/03/05 10:01:43;;;;;;;2.47;1.10;;;15.60;59.90;;;;;;5082471;28;20056;-69
2022/03/05 10:04:24;;;;;;;3.22;0.98;;;15.60;60.10;;;;;;5050382;28;20077;-69
2022/03/05 10:07:14;;;;;;;1.83;0.90;;;15.60;60.30;;;;;;5084306;28;20093;-71
2022/03/05 10:09:43;;;;;;;3.05;1.00;;;15.50;60.60;;;;;;5082110;28;20092;-69
2022/03/05 10:12:33;;;;;;;3.03;1.35;;;15.50;60.90;;;;;;5067715;28;20095;-69
2022/03/05 10:15:09;;;;;;;3.72;1.50;;;15.50;61.20;;;;;;5084226;28;20077;-70
2022/03/05 10:17:54;;;;;;;4.45;2.20;;;15.40;61.60;;;;;;5089318;28;20077;-69
2022/03/05 10:20:42;;;;;;;9.05;2.15;;;15.40;61.70;;;;;;5088884;28;20119;-68
2022/03/05 10:23:11;;;;;;;8.98;1.92;;;15.40;61.60;;;;;;5055747;28;20084;-69
2022/03/05 10:25:50;;;;;;;4.90;1.92;;;15.30;61.30;;;;;;5089198;28;20065;-70
2022/03/05 10:28:22;;;;;;;3.75;1.70;;;15.30;60.60;;;;;;5095458;28;20126;-69
2022/03/05 10:30:54;;;;;;;9.75;1.50;;;15.30;59.60;;;;;;5086498;28;20087;-69
2022/03/05 10:33:42;;;;;;;3.83;1.33;;;15.20;58.90;;;;;;5072589;28;20072;-69
2022/03/05 10:36:23;;;;;;;4.65;1.77;;;15.30;58.40;;;;;;5088093;28;20083;-69
2022/03/05 10:38:52;;;;;;;4.65;1.63;;;15.30;58.80;;;;;;5085704;28;20089;-70
2022/03/05 10:41:33;;;;;;;11.73;1.85;;;15.20;59.10;;;;;;5072210;28;20171;-71
2022/03/05 10:44:15;;;;;;;8.30;1.60;;;15.20;59.00;;;;;;5088164;28;20150;-68
2022/03/05 10:46:58;;;;;;;8.02;1.52;;;15.20;58.80;;;;;;5086271;28;20104;-70
2022/03/05 10:49:29;;;;;;;3.88;1.35;;;15.20;58.00;;;;;;5087560;28;20084;-68
2022/03/05 10:52:04;;;;;;;7.93;1.20;;;15.30;57.00;;;;;;5085971;28;20551;-70
2022/03/05 10:54:43;;;;;;;5.38;1.58;;;15.40;55.60;;;;;;5087103;28;20213;-67
2022/03/05 10:57:14;;;;;;;4.95;1.45;;;15.50;55.00;;;;;;5085826;28;20085;-69
2022/03/05 10:59:50;;;;;;;8.73;1.40;;;15.50;54.90;;;;;;5088120;28;20109;-69
2022/03/05 11:02:20;;;;;;;8.23;1.23;;;15.50;55.50;;;;;;5084636;28;20161;-69
2022/03/05 11:04:48;;;;;;;3.03;1.20;;;15.60;54.40;;;;;;5088041;28;20419;-70
2022/03/05 11:07:16;;;;;;;4.75;1.15;;;15.60;54.00;;;;;;5084157;28;20123;-69
2022/03/05 11:09:44;;;;;;;3.40;1.20;;;15.60;54.10;;;;;;5085603;28;20111;-69
2022/03/05 11:12:16;;;;;;;4.75;1.52;;;15.50;54.40;;;;;;5086444;28;20069;-69
2022/03/05 11:14:47;;;;;;;5.28;1.38;;;15.50;54.60;;;;;;5072575;28;20510;-70
2022/03/05 11:17:15;;;;;;;8.93;1.30;;;15.40;54.30;;;;;;5067634;28;20473;-70
2022/03/05 11:19:41;;;;;;;4.97;1.63;;;15.50;54.20;;;;;;5086995;28;20127;-70
2022/03/05 11:22:11;;;;;;;2.58;1.20;;;15.50;53.80;;;;;;5087614;28;20495;-70
2022/03/05 11:24:43;;;;;;;4.82;1.25;;;15.60;53.70;;;;;;5070442;28;20083;-70
2022/03/05 11:27:14;;;;;;;4.43;1.02;;;15.60;53.60;;;;;;5068315;28;20081;-69
2022/03/05 11:29:56;;;;;;;4.57;1.17;;;15.60;53.80;;;;;;5086089;28;20097;-68
2022/03/05 11:32:29;;;;;;;6.25;1.40;;;15.60;53.90;;;;;;5087888;28;20098;-69
2022/03/05 11:34:55;;;;;;;4.38;1.25;;;15.60;53.90;;;;;;5086280;28;20068;-68
2022/03/05 11:37:26;;;;;;;;;;;15.60;53.80;;;;;;5087825;28;20103;-69
2022/03/05 11:39:53;;;;;;;3.33;1.10;;;15.60;53.60;;;;;;5068902;28;19972;-70
2022/03/05 11:42:32;;;;;;;4.43;1.23;;;15.60;53.80;;;;;;5083759;28;20446;-70
2022/03/05 11:45:01;;;;;;;6.88;1.63;;;15.70;53.90;;;;;;5069621;28;20921;-69
2022/03/05 11:47:35;;;;;;;6.63;1.60;;;15.70;53.80;;;;;;5085207;28;20442;-70
2022/03/05 11:50:02;;;;;;;6.20;1.20;;;15.60;53.90;;;;;;5084844;28;20659;-70
2022/03/05 11:52:38;;;;;;;5.65;0.93;;;15.60;53.90;;;;;;5082570;28;20076;-70
2022/03/05 11:55:26;;;;;;;4.88;1.38;;;15.60;53.90;;;;;;5085825;28;20129;-69
2022/03/05 11:57:52;;;;;;;4.20;1.13;;;15.60;53.70;;;;;;5084974;28;20073;-69
2022/03/05 12:00:20;;;;;;;5.43;1.40;;;15.60;53.60;;;;;;5083378;28;20081;-70
2022/03/05 12:02:51;;;;;;;4.50;1.17;;;15.70;53.30;;;;;;5069450;28;20073;-68
2022/03/05 12:05:41;;;;;;;3.38;1.23;;;15.70;53.20;;;;;;5085777;28;20084;-68
2022/03/05 12:08:12;;;;;;;8.85;1.40;;;15.70;53.00;;;;;;5085965;28;20080;-71
2022/03/05 12:10:39;;;;;;;4.97;1.40;;;15.80;52.90;;;;;;5084624;28;20076;-70
2022/03/05 12:13:07;;;;;;;4.10;1.40;;;15.80;52.90;;;;;;5088757;28;20723;-69
2022/03/05 12:15:40;;;;;;;5.47;1.00;;;15.80;53.00;;;;;;5083932;28;20104;-69
2022/03/05 12:18:11;;;;;;;4.68;1.20;;;15.80;53.00;;;;;;5066601;28;20084;-69
2022/03/05 12:20:39;;;;;;;4.75;1.38;;;15.70;53.10;;;;;;5082072;28;20096;-69
2022/03/05 12:23:08;;;;;;;4.70;1.23;;;15.70;53.10;;;;;;5083551;28;20077;-70
2022/03/05 12:25:37;;;;;;;5.00;1.02;;;15.70;53.30;;;;;;5081878;28;20096;-69
2022/03/05 12:28:05;;;;;;;3.47;1.05;;;15.60;53.40;;;;;;5085045;28;20080;-70
2022/03/05 12:30:35;;;;;;;5.72;1.60;;;15.60;53.60;;;;;;5069252;28;20089;-69
2022/03/05 12:33:07;;;;;;;7.55;1.60;;;15.50;53.80;;;;;;5087485;28;20088;-69
2022/03/05 12:35:36;;;;;;;5.45;1.40;;;15.50;53.70;;;;;;5083041;28;20430;-70
2022/03/05 12:38:03;;;;;;;6.57;1.63;;;15.50;54.40;;;;;;5085268;28;20064;-71
2022/03/05 12:40:31;;;;;;;4.20;1.60;;;15.40;54.40;;;;;;5085814;28;20084;-69
2022/03/05 12:43:00;;;;;;;8.80;1.50;;;15.30;54.90;;;;;;5067984;28;20441;-69
2022/03/05 12:45:29;;;;;;;6.18;1.50;;;15.30;55.30;;;;;;5085469;28;20076;-69
2022/03/05 12:47:58;;;;;;;8.52;1.95;;;15.20;55.50;;;;;;5084633;28;20167;-69
2022/03/05 12:50:29;;;;;;;4.72;1.30;;;15.10;55.80;;;;;;5083362;28;20898;-70
2022/03/05 12:52:58;;;;;;;7.18;1.42;;;15.00;55.60;;;;;;5084575;28;20101;-69
2022/03/05 12:55:56;;;;;;;7.07;1.73;;;15.00;55.50;;;;;;5084726;28;20108;-69
2022/03/05 12:58:31;;;;;;;8.80;1.65;;;15.00;55.00;;;;;;5067794;28;20092;-68
2022/03/05 13:01:00;;;;;;;6.05;1.60;;;15.10;55.10;;;;;;5085190;28;20085;-68
2022/03/05 13:03:28;;;;;;;7.72;1.70;;;15.00;55.10;;;;;;5085885;28;20113;-68
2022/03/05 13:05:56;;;;;;;7.55;2.00;;;15.00;55.10;;;;;;5068268;28;20079;-69
2022/03/05 13:08:25;;;;;;;4.85;1.33;;;15.00;54.90;;;;;;5085482;28;20475;-69